Hong Kong, China
Current Conditions -  °F | °C
As of 6:00 AM on Monday 29 Dec 2014 (Local Time) from VHHH Reporting Station
Clear Clear  
Wind Chill: 52°   Ceiling: Unl
Heat Index: 52°   Visibility: 5mi
Dew Point: 41°   Wind: 8mph
Humidity: 67%   Direction: 10°N
Pressure: 30.18"   Gusts: NA
Location:  22.28°N, 114.15°E
Report Text: VHHH 282200Z 01007KT 8000 NSC 11/05 Q1022 NOSIG
Loading
Personal Weather Stations






























Interactive Weather Map New forecast layout! Learn more

10-Day Weather Forecast

Advertisements
Track Severe Weather on mobile